Time;durP1;ratioP1;P1;durP2;ratioP2;P2;SDS_P1;SDS_P2;PMS_P1;PMS_P2;Temp;Humidity;BMP_temperature;BMP_pressure;BME280_temperature;BME280_humidity;BME280_pressure;Samples;Min_cycle;Max_cycle;Signal;HPM_P1;HPM_P2
2023/12/01 00:03:53;;;;;;;10.15;9.02;;;;;;;;;;10413069;27;20079;-62
2023/12/01 00:08:52;;;;;;;12.35;9.63;;;;;;;;;;10416915;27;20071;-62
2023/12/01 00:13:51;;;;;;;11.70;9.02;;;;;;;;;;10397957;27;20093;-61
2023/12/01 00:18:49;;;;;;;10.60;7.80;;;;;;;;;;10418874;27;20485;-61
2023/12/01 00:23:47;;;;;;;12.18;9.43;;;;;;;;;;10416613;27;20071;-61
2023/12/01 00:28:47;;;;;;;10.43;9.32;;;;;;;;;;10416040;27;20067;-63
2023/12/01 00:33:46;;;;;;;10.95;9.85;;;;;;;;;;10414887;27;20630;-61
2023/12/01 00:38:44;;;;;;;33.53;20.20;;;;;;;;;;10416761;27;20516;-62
2023/12/01 00:43:42;;;;;;;27.63;20.70;;;;;;;;;;10413755;27;20531;-62
2023/12/01 00:48:42;;;;;;;22.55;16.27;;;;;;;;;;10418990;27;20059;-62
2023/12/01 00:53:40;;;;;;;19.17;14.40;;;;;;;;;;10416024;27;20101;-62
2023/12/01 00:58:39;;;;;;;32.50;21.63;;;;;;;;;;10415788;27;20110;-62
2023/12/01 01:03:37;;;;;;;48.17;29.60;;;;;;;;;;10394724;27;20190;-62
2023/12/01 01:08:37;;;;;;;41.80;30.67;;;;;;;;;;10397013;27;20523;-62
2023/12/01 01:13:35;;;;;;;30.90;23.65;;;;;;;;;;10398105;27;20079;-62
2023/12/01 01:18:33;;;;;;;26.15;20.73;;;;;;;;;;10396076;27;20085;-62
2023/12/01 01:23:31;;;;;;;73.50;46.10;;;;;;;;;;10417025;27;20078;-63
2023/12/01 01:28:31;;;;;;;49.50;28.60;;;;;;;;;;10396929;27;20043;-62
2023/12/01 01:33:30;;;;;;;19.08;17.05;;;;;;;;;;10396552;27;20078;-62
2023/12/01 01:38:29;;;;;;;18.77;16.85;;;;;;;;;;10399369;28;20079;-63
2023/12/01 01:43:27;;;;;;;24.42;16.88;;;;;;;;;;10414995;28;20075;-62
2023/12/01 01:48:28;;;;;;;19.45;17.10;;;;;;;;;;10414481;28;20063;-62
2023/12/01 01:53:27;;;;;;;21.27;18.60;;;;;;;;;;10412732;28;20523;-62
2023/12/01 01:58:25;;;;;;;20.85;18.08;;;;;;;;;;10414137;28;20048;-61
2023/12/01 02:03:24;;;;;;;21.45;17.73;;;;;;;;;;10393858;28;20086;-61
2023/12/01 02:08:26;;;;;;;22.83;18.60;;;;;;;;;;10415923;28;20081;-61
2023/12/01 02:13:28;;;;;;;26.70;23.80;;;;;;;;;;10417349;27;20075;-61
2023/12/01 02:18:27;;;;;;;24.10;21.60;;;;;;;;;;10422973;27;20505;-62
2023/12/01 02:23:27;;;;;;;24.83;22.23;;;;;;;;;;10424292;27;20075;-62
2023/12/01 02:28:25;;;;;;;22.00;18.35;;;;;;;;;;10419322;27;20071;-62
2023/12/01 02:33:24;;;;;;;20.38;17.25;;;;;;;;;;10422947;27;20067;-63
2023/12/01 02:38:22;;;;;;;19.98;17.30;;;;;;;;;;10421513;27;20070;-63
2023/12/01 02:43:22;;;;;;;21.10;17.30;;;;;;;;;;10422120;27;20263;-62
2023/12/01 02:48:20;;;;;;;20.65;18.45;;;;;;;;;;10421644;27;20079;-62
2023/12/01 02:53:18;;;;;;;86.28;50.03;;;;;;;;;;10420950;27;20082;-63
2023/12/01 02:58:17;;;;;;;21.08;18.10;;;;;;;;;;10421593;27;20087;-63
2023/12/01 03:03:16;;;;;;;22.50;18.33;;;;;;;;;;10403341;27;20074;-63
2023/12/01 03:08:15;;;;;;;22.73;19.05;;;;;;;;;;10399457;27;20106;-62
2023/12/01 03:13:13;;;;;;;20.10;17.33;;;;;;;;;;10420726;27;20519;-62
2023/12/01 03:18:11;;;;;;;22.80;20.40;;;;;;;;;;10421042;27;20656;-60
2023/12/01 03:23:11;;;;;;;27.60;23.42;;;;;;;;;;10422424;27;20047;-61
2023/12/01 03:28:10;;;;;;;29.90;23.45;;;;;;;;;;10414265;27;20074;-61
2023/12/01 03:33:08;;;;;;;36.63;28.20;;;;;;;;;;10414614;27;20076;-61
2023/12/01 03:38:06;;;;;;;21.67;19.35;;;;;;;;;;10401658;27;20524;-62
2023/12/01 03:43:06;;;;;;;23.27;18.38;;;;;;;;;;10419917;27;20522;-61
2023/12/01 03:48:04;;;;;;;22.80;17.75;;;;;;;;;;10400190;27;20078;-61
2023/12/01 03:53:02;;;;;;;20.75;18.15;;;;;;;;;;10420207;27;20079;-61
2023/12/01 03:58:02;;;;;;;24.20;18.20;;;;;;;;;;10419834;27;20509;-61
2023/12/01 04:03:02;;;;;;;22.17;18.73;;;;;;;;;;10399021;27;20082;-61
2023/12/01 04:08:00;;;;;;;26.60;18.15;;;;;;;;;;10396827;27;20496;-61
2023/12/01 04:13:06;;;;;;;22.38;19.13;;;;;;;;;;10399096;27;20071;-61
2023/12/01 04:18:07;;;;;;;21.30;18.52;;;;;;;;;;10415997;27;20098;-61
2023/12/01 04:23:09;;;;;;;23.35;20.60;;;;;;;;;;10418444;27;20055;-61
2023/12/01 04:28:07;;;;;;;20.83;18.60;;;;;;;;;;10416720;27;20071;-61
2023/12/01 04:33:06;;;;;;;23.95;19.95;;;;;;;;;;10415986;27;20102;-61
2023/12/01 04:38:08;;;;;;;23.35;20.02;;;;;;;;;;10417003;27;20078;-61
2023/12/01 04:43:07;;;;;;;25.25;21.98;;;;;;;;;;10421922;27;20074;-61
2023/12/01 04:48:07;;;;;;;23.23;20.73;;;;;;;;;;10416703;27;20589;-61
2023/12/01 04:53:08;;;;;;;27.38;24.17;;;;;;;;;;10417562;27;20481;-61
2023/12/01 04:58:06;;;;;;;28.63;22.40;;;;;;;;;;10420250;27;20168;-61
2023/12/01 05:03:05;;;;;;;23.95;21.02;;;;;;;;;;10418389;27;20063;-62
2023/12/01 05:08:04;;;;;;;25.42;20.90;;;;;;;;;;10416017;27;20085;-61
2023/12/01 05:13:05;;;;;;;26.45;21.52;;;;;;;;;;10418006;27;20071;-62
2023/12/01 05:18:05;;;;;;;26.73;23.02;;;;;;;;;;10416013;27;20081;-61
2023/12/01 05:23:05;;;;;;;27.13;21.98;;;;;;;;;;10416788;27;20139;-62
2023/12/01 05:28:05;;;;;;;25.65;20.60;;;;;;;;;;10417770;27;20074;-62
2023/12/01 05:33:05;;;;;;;30.67;22.50;;;;;;;;;;10419132;27;20139;-62
2023/12/01 05:38:04;;;;;;;25.40;21.98;;;;;;;;;;10420779;27;20180;-62
2023/12/01 05:43:05;;;;;;;23.92;20.67;;;;;;;;;;10414318;27;20650;-62
2023/12/01 05:48:06;;;;;;;25.35;22.13;;;;;;;;;;10416568;27;20464;-61
2023/12/01 05:53:07;;;;;;;25.15;20.45;;;;;;;;;;10434086;27;20059;-62
2023/12/01 05:58:09;;;;;;;26.98;21.42;;;;;;;;;;10435561;27;20098;-62
2023/12/01 06:03:08;;;;;;;28.05;22.40;;;;;;;;;;10438185;27;20067;-62
2023/12/01 06:08:08;;;;;;;30.38;24.45;;;;;;;;;;10432284;27;20312;-62
2023/12/01 06:13:08;;;;;;;31.90;23.77;;;;;;;;;;10431453;27;20071;-61
2023/12/01 06:18:06;;;;;;;27.15;20.50;;;;;;;;;;10436403;27;20078;-62
2023/12/01 06:23:06;;;;;;;23.48;19.00;;;;;;;;;;10422966;27;20143;-62
2023/12/01 06:28:06;;;;;;;23.33;18.80;;;;;;;;;;10422725;27;20837;-62
2023/12/01 06:33:07;;;;;;;35.10;29.15;;;;;;;;;;10434014;27;20070;-63
2023/12/01 06:38:06;;;;;;;36.00;27.15;;;;;;;;;;10429523;27;20507;-60
2023/12/01 06:43:09;;;;;;;29.13;23.92;;;;;;;;;;10430710;27;20084;-62
2023/12/01 06:48:11;;;;;;;23.83;21.05;;;;;;;;;;10433258;27;20071;-62
2023/12/01 06:53:11;;;;;;;25.90;22.90;;;;;;;;;;10433241;27;20440;-62
2023/12/01 06:58:10;;;;;;;33.35;27.30;;;;;;;;;;10432319;27;20075;-62
2023/12/01 07:03:09;;;;;;;41.22;31.20;;;;;;;;;;10429274;27;20085;-62
2023/12/01 07:08:12;;;;;;;36.10;31.05;;;;;;;;;;10418445;27;20547;-63
2023/12/01 07:13:12;;;;;;;44.92;31.17;;;;;;;;;;10420345;27;20082;-61
2023/12/01 07:18:11;;;;;;;39.47;32.70;;;;;;;;;;10419730;27;20511;-62
2023/12/01 07:23:09;;;;;;;39.22;34.88;;;;;;;;;;10418198;27;20071;-61
2023/12/01 07:28:11;;;;;;;42.70;35.05;;;;;;;;;;10420079;27;20128;-62
2023/12/01 07:33:10;;;;;;;51.88;37.30;;;;;;;;;;10416295;27;20469;-62
2023/12/01 07:38:08;;;;;;;41.22;33.63;;;;;;;;;;10420700;27;20070;-63
2023/12/01 07:43:07;;;;;;;34.40;29.13;;;;;;;;;;10426951;27;20063;-62
2023/12/01 07:48:09;;;;;;;40.33;33.00;;;;;;;;;;10431607;27;20071;-64
2023/12/01 07:53:08;;;;;;;40.55;33.35;;;;;;;;;;10417824;27;20066;-63
2023/12/01 07:58:06;;;;;;;47.88;40.83;;;;;;;;;;10413173;27;20747;-62
2023/12/01 08:03:04;;;;;;;41.35;32.78;;;;;;;;;;10415668;27;20155;-64
2023/12/01 08:08:04;;;;;;;45.00;36.85;;;;;;;;;;10416967;27;20105;-62
2023/12/01 08:13:02;;;;;;;50.97;36.85;;;;;;;;;;10419190;27;20472;-63
2023/12/01 08:18:01;;;;;;;38.13;33.97;;;;;;;;;;10419600;27;20071;-63
2023/12/01 08:23:00;;;;;;;51.53;42.75;;;;;;;;;;10417480;27;20603;-62
2023/12/01 08:28:01;;;;;;;57.95;43.70;;;;;;;;;;10418269;27;20070;-62
2023/12/01 08:32:59;;;;;;;50.88;39.42;;;;;;;;;;10419436;27;20067;-63
2023/12/01 08:37:58;;;;;;;42.38;34.78;;;;;;;;;;10417799;27;20075;-61
2023/12/01 08:42:56;;;;;;;55.35;42.50;;;;;;;;;;10418663;27;20097;-62
2023/12/01 08:47:56;;;;;;;47.25;36.53;;;;;;;;;;10412780;27;20082;-61
2023/12/01 08:52:54;;;;;;;39.28;31.67;;;;;;;;;;10416567;27;20071;-62
2023/12/01 08:57:52;;;;;;;40.22;32.58;;;;;;;;;;10396339;27;20087;-61
2023/12/01 09:02:52;;;;;;;42.17;33.10;;;;;;;;;;10417546;27;20075;-62
2023/12/01 09:07:52;;;;;;;35.72;30.67;;;;;;;;;;10414430;27;20079;-62
2023/12/01 09:12:51;;;;;;;38.53;31.85;;;;;;;;;;10416609;27;20715;-62
2023/12/01 09:17:49;;;;;;;41.90;31.77;;;;;;;;;;10416964;27;20181;-63
2023/12/01 09:22:48;;;;;;;38.08;30.52;;;;;;;;;;10414204;27;20071;-62
2023/12/01 09:27:48;;;;;;;48.33;37.95;;;;;;;;;;10415262;27;20082;-61
2023/12/01 09:32:46;;;;;;;41.88;33.92;;;;;;;;;;10416313;27;20480;-64
2023/12/01 09:37:45;;;;;;;41.45;36.95;;;;;;;;;;10415371;27;20078;-62
2023/12/01 09:42:43;;;;;;;47.60;38.58;;;;;;;;;;10414090;27;20071;-63
2023/12/01 09:47:46;;;;;;;42.60;33.40;;;;;;;;;;10417346;28;20074;-62
2023/12/01 09:52:45;;;;;;;44.53;38.88;;;;;;;;;;10410729;28;20491;-61
2023/12/01 09:57:43;;;;;;;42.95;34.45;;;;;;;;;;10414124;28;20511;-62
2023/12/01 10:02:43;;;;;;;46.97;34.45;;;;;;;;;;10412952;28;20530;-62
2023/12/01 10:07:42;;;;;;;46.63;35.25;;;;;;;;;;10410983;28;20079;-62
2023/12/01 10:12:52;;;;;;;44.17;33.22;;;;;;;;;;10414210;28;20055;-63
2023/12/01 10:17:52;;;;;;;47.22;37.05;;;;;;;;;;10414324;28;20075;-62
2023/12/01 10:22:51;;;;;;;43.03;35.15;;;;;;;;;;10417035;28;20074;-62
2023/12/01 10:27:56;;;;;;;53.10;43.17;;;;;;;;;;10413686;28;20067;-63
2023/12/01 10:32:55;;;;;;;51.40;38.58;;;;;;;;;;10394058;28;20535;-61
2023/12/01 10:37:54;;;;;;;55.55;39.78;;;;;;;;;;10404510;27;20074;-62
2023/12/01 10:42:52;;;;;;;38.83;33.35;;;;;;;;;;10425397;27;20071;-62
2023/12/01 10:47:52;;;;;;;43.10;33.72;;;;;;;;;;10422185;27;20071;-62
2023/12/01 10:52:55;;;;;;;46.17;33.72;;;;;;;;;;10422477;27;20073;-62
2023/12/01 10:57:54;;;;;;;37.22;31.20;;;;;;;;;;10421045;27;20083;-64
2023/12/01 11:02:53;;;;;;;37.80;32.55;;;;;;;;;;10421375;27;20068;-63
2023/12/01 11:07:58;;;;;;;39.80;32.38;;;;;;;;;;10420962;27;20070;-63
2023/12/01 11:13:06;;;;;;;35.78;30.73;;;;;;;;;;10418609;27;20055;-61
2023/12/01 11:18:07;;;;;;;39.97;33.00;;;;;;;;;;10422150;27;20089;-61
2023/12/01 11:23:25;;;;;;;36.13;30.48;;;;;;;;;;10420668;27;20078;-62
2023/12/01 11:28:28;;;;;;;37.10;31.42;;;;;;;;;;10421750;27;20074;-62
2023/12/01 11:33:31;;;;;;;55.33;39.10;;;;;;;;;;10401931;27;20070;-61
2023/12/01 11:38:31;;;;;;;38.83;32.28;;;;;;;;;;10418520;27;20527;-61
2023/12/01 11:43:30;;;;;;;42.78;32.35;;;;;;;;;;10419396;27;20056;-61
2023/12/01 11:48:35;;;;;;;46.60;35.00;;;;;;;;;;10417544;27;20074;-62
2023/12/01 11:53:35;;;;;;;55.15;39.25;;;;;;;;;;10420274;27;20066;-62
2023/12/01 11:58:33;;;;;;;44.88;34.58;;;;;;;;;;10420535;27;20090;-62
2023/12/01 12:03:31;;;;;;;70.53;53.10;;;;;;;;;;10418291;27;20082;-62
2023/12/01 12:08:30;;;;;;;48.63;39.13;;;;;;;;;;10417776;27;20066;-61
2023/12/01 12:13:30;;;;;;;40.75;34.65;;;;;;;;;;10414927;27;20071;-61
2023/12/01 12:18:30;;;;;;;34.05;28.90;;;;;;;;;;10414366;27;20078;-62
2023/12/01 12:23:28;;;;;;;35.20;29.35;;;;;;;;;;10412176;27;20074;-62
2023/12/01 12:28:27;;;;;;;41.10;31.45;;;;;;;;;;10412862;27;20074;-62
2023/12/01 12:33:27;;;;;;;42.40;33.53;;;;;;;;;;10418621;27;20100;-62
2023/12/01 12:38:26;;;;;;;45.70;32.67;;;;;;;;;;10415996;27;20071;-62
2023/12/01 12:43:25;;;;;;;41.15;34.20;;;;;;;;;;10417776;27;20063;-62
2023/12/01 12:48:25;;;;;;;38.13;31.65;;;;;;;;;;10418201;27;20071;-62
2023/12/01 12:53:25;;;;;;;31.95;25.80;;;;;;;;;;10417020;27;20063;-63
2023/12/01 12:58:23;;;;;;;40.25;31.48;;;;;;;;;;10416451;27;20528;-62
2023/12/01 13:03:21;;;;;;;45.55;35.88;;;;;;;;;;10397516;27;20074;-62
2023/12/01 13:08:20;;;;;;;65.47;54.70;;;;;;;;;;10416685;27;20814;-62
2023/12/01 13:13:20;;;;;;;60.20;50.88;;;;;;;;;;10415073;27;20071;-62
2023/12/01 13:18:18;;;;;;;55.70;40.35;;;;;;;;;;10416195;27;20075;-62
2023/12/01 13:23:18;;;;;;;48.70;41.63;;;;;;;;;;10418206;27;20075;-61
2023/12/01 13:28:19;;;;;;;60.75;46.13;;;;;;;;;;10416753;27;20035;-61
2023/12/01 13:33:19;;;;;;;42.95;36.22;;;;;;;;;;10416487;27;20067;-62
2023/12/01 13:38:17;;;;;;;42.95;36.38;;;;;;;;;;10415442;27;20079;-61
2023/12/01 13:43:15;;;;;;;74.00;60.33;;;;;;;;;;10416315;27;20073;-62
2023/12/01 13:48:14;;;;;;;42.33;36.05;;;;;;;;;;10416997;28;20594;-62
2023/12/01 13:53:13;;;;;;;39.10;34.47;;;;;;;;;;10413343;28;20339;-63
2023/12/01 13:58:12;;;;;;;38.80;33.08;;;;;;;;;;10417093;28;20082;-62
2023/12/01 14:03:10;;;;;;;37.88;32.97;;;;;;;;;;10415167;28;20081;-61
2023/12/01 14:08:24;;;;;;;35.10;30.48;;;;;;;;;;10417731;28;20071;-63
2023/12/01 14:13:22;;;;;;;35.88;31.98;;;;;;;;;;10424108;27;20075;-62
2023/12/01 14:18:21;;;;;;;62.85;43.40;;;;;;;;;;10422662;27;20075;-63
2023/12/01 14:23:21;;;;;;;84.68;57.03;;;;;;;;;;10424249;27;20078;-62
2023/12/01 14:28:19;;;;;;;75.57;54.85;;;;;;;;;;10424169;27;20063;-62
2023/12/01 14:33:17;;;;;;;67.20;52.92;;;;;;;;;;10422400;27;20075;-62
2023/12/01 14:38:16;;;;;;;34.92;29.48;;;;;;;;;;10422918;27;20067;-62
2023/12/01 14:43:15;;;;;;;40.78;33.38;;;;;;;;;;10422189;27;20070;-61
2023/12/01 14:48:14;;;;;;;39.92;31.67;;;;;;;;;;10421236;27;20075;-63
2023/12/01 14:53:12;;;;;;;36.05;30.88;;;;;;;;;;10421137;27;20133;-62
2023/12/01 14:58:11;;;;;;;43.25;36.47;;;;;;;;;;10422216;27;20082;-62
2023/12/01 15:03:10;;;;;;;37.63;30.83;;;;;;;;;;10403690;27;20043;-62
2023/12/01 15:08:09;;;;;;;34.60;29.85;;;;;;;;;;10419111;27;20079;-62
2023/12/01 15:13:07;;;;;;;46.22;37.35;;;;;;;;;;10423214;27;20071;-62
2023/12/01 15:18:05;;;;;;;75.88;59.67;;;;;;;;;;10420743;27;20499;-62
2023/12/01 15:23:05;;;;;;;35.08;30.30;;;;;;;;;;10427681;27;20051;-62
2023/12/01 15:28:03;;;;;;;36.53;32.60;;;;;;;;;;10429003;27;20074;-62
2023/12/01 15:33:01;;;;;;;38.33;32.30;;;;;;;;;;10423323;27;20062;-62
2023/12/01 15:38:02;;;;;;;43.72;33.65;;;;;;;;;;10430844;27;20065;-62
2023/12/01 15:43:02;;;;;;;39.85;30.75;;;;;;;;;;10415463;27;20147;-63
2023/12/01 15:48:00;;;;;;;52.88;35.97;;;;;;;;;;10422416;27;20069;-62
2023/12/01 15:53:00;;;;;;;84.30;61.00;;;;;;;;;;10412175;27;20138;-63
2023/12/01 15:57:59;;;;;;;35.47;30.75;;;;;;;;;;10411288;27;20178;-63
2023/12/01 16:02:58;;;;;;;51.63;40.13;;;;;;;;;;10412190;27;20130;-62
2023/12/01 16:07:57;;;;;;;199.93;132.73;;;;;;;;;;10413194;27;20117;-61
2023/12/01 16:12:55;;;;;;;130.45;89.47;;;;;;;;;;10410736;27;20110;-62
2023/12/01 16:17:53;;;;;;;72.85;56.72;;;;;;;;;;10412307;27;20130;-63
2023/12/01 16:22:53;;;;;;;160.65;121.05;;;;;;;;;;10410800;27;20232;-60
2023/12/01 16:27:52;;;;;;;124.47;93.40;;;;;;;;;;10415779;27;20605;-61
2023/12/01 16:32:50;;;;;;;154.70;119.22;;;;;;;;;;10419873;27;20074;-62
2023/12/01 16:37:49;;;;;;;144.40;110.85;;;;;;;;;;10407917;27;20069;-62
2023/12/01 16:42:49;;;;;;;159.35;121.13;;;;;;;;;;10411581;27;20079;-61
2023/12/01 16:47:47;;;;;;;113.80;76.00;;;;;;;;;;10395074;27;20085;-61
2023/12/01 16:52:46;;;;;;;152.60;116.95;;;;;;;;;;10418544;27;20055;-62
2023/12/01 16:57:44;;;;;;;204.82;155.80;;;;;;;;;;10414330;27;20520;-61
2023/12/01 17:02:45;;;;;;;148.52;111.97;;;;;;;;;;10415446;27;20488;-61
2023/12/01 17:07:43;;;;;;;146.98;110.10;;;;;;;;;;10417350;27;20063;-62
2023/12/01 17:12:41;;;;;;;61.25;47.10;;;;;;;;;;10393812;27;20066;-61
2023/12/01 17:17:39;;;;;;;167.70;110.28;;;;;;;;;;10418111;27;20066;-62
2023/12/01 17:22:39;;;;;;;145.00;87.30;;;;;;;;;;10417979;27;20075;-61
2023/12/01 17:27:39;;;;;;;83.88;55.88;;;;;;;;;;10415493;27;20075;-62
2023/12/01 17:32:41;;;;;;;60.58;46.22;;;;;;;;;;10410263;27;20079;-62
2023/12/01 17:37:40;;;;;;;78.60;53.38;;;;;;;;;;10415067;27;20070;-62
2023/12/01 17:42:39;;;;;;;53.45;37.58;;;;;;;;;;10416563;27;20120;-60
2023/12/01 17:47:37;;;;;;;29.90;25.00;;;;;;;;;;10415119;28;20074;-61
2023/12/01 17:52:35;;;;;;;36.63;30.52;;;;;;;;;;10416734;28;20067;-61
2023/12/01 17:57:35;;;;;;;41.28;31.30;;;;;;;;;;10415196;28;20087;-61
2023/12/01 18:02:33;;;;;;;23.42;20.92;;;;;;;;;;10415680;28;20071;-61
2023/12/01 18:07:31;;;;;;;16.55;14.75;;;;;;;;;;10416869;28;20062;-60
2023/12/01 18:12:30;;;;;;;12.30;10.77;;;;;;;;;;10416303;28;20074;-61
2023/12/01 18:17:30;;;;;;;28.48;18.65;;;;;;;;;;10412648;28;20063;-60
2023/12/01 18:22:28;;;;;;;144.02;107.13;;;;;;;;;;10411132;28;20105;-61
2023/12/01 18:27:26;;;;;;;125.43;97.78;;;;;;;;;;10414535;28;20059;-61
2023/12/01 18:32:25;;;;;;;106.85;82.55;;;;;;;;;;10415897;28;20605;-61
2023/12/01 18:37:25;;;;;;;104.57;74.65;;;;;;;;;;10413815;28;20325;-60
2023/12/01 18:42:23;;;;;;;95.03;65.90;;;;;;;;;;10414050;28;20075;-61
2023/12/01 18:47:21;;;;;;;95.30;70.75;;;;;;;;;;10415543;28;20077;-61
2023/12/01 18:52:19;;;;;;;64.00;47.97;;;;;;;;;;10413631;28;20074;-61
2023/12/01 18:57:19;;;;;;;51.35;38.00;;;;;;;;;;10417224;27;20086;-62
2023/12/01 19:02:17;;;;;;;83.78;61.85;;;;;;;;;;10420165;27;20071;-62
2023/12/01 19:07:16;;;;;;;72.32;53.17;;;;;;;;;;10427623;27;20091;-61
2023/12/01 19:12:14;;;;;;;63.25;48.90;;;;;;;;;;10424122;27;20077;-61
2023/12/01 19:17:14;;;;;;;66.70;53.60;;;;;;;;;;10427491;27;20063;-63
2023/12/01 19:22:12;;;;;;;72.13;59.00;;;;;;;;;;10425682;27;20067;-63
2023/12/01 19:27:10;;;;;;;72.03;56.65;;;;;;;;;;10426591;27;20477;-62
2023/12/01 19:32:08;;;;;;;71.70;54.42;;;;;;;;;;10430857;27;20063;-62
2023/12/01 19:37:08;;;;;;;80.68;59.90;;;;;;;;;;10421438;27;20075;-61
2023/12/01 19:42:06;;;;;;;73.00;52.65;;;;;;;;;;10419606;27;20082;-61
2023/12/01 19:47:08;;;;;;;72.05;57.38;;;;;;;;;;10417615;27;20086;-60
2023/12/01 19:52:08;;;;;;;63.60;48.08;;;;;;;;;;10416246;27;20312;-60
2023/12/01 19:57:06;;;;;;;34.30;24.98;;;;;;;;;;10413689;27;21030;-61
2023/12/01 20:02:04;;;;;;;24.20;19.15;;;;;;;;;;10413424;27;21519;-62
2023/12/01 20:07:02;;;;;;;28.92;23.55;;;;;;;;;;10410491;27;20134;-60
2023/12/01 20:12:02;;;;;;;19.02;13.27;;;;;;;;;;10411560;27;20114;-61
2023/12/01 20:17:01;;;;;;;137.82;96.43;;;;;;;;;;10414268;27;20131;-61
2023/12/01 20:21:59;;;;;;;48.17;36.22;;;;;;;;;;10426996;27;20070;-62
2023/12/01 20:26:57;;;;;;;42.33;23.73;;;;;;;;;;10425047;27;20070;-63
2023/12/01 20:31:58;;;;;;;39.60;29.00;;;;;;;;;;10425526;27;20117;-62
2023/12/01 20:36:56;;;;;;;18.02;13.40;;;;;;;;;;10426597;27;20488;-63
2023/12/01 20:41:54;;;;;;;12.00;10.68;;;;;;;;;;10425281;27;20067;-62
2023/12/01 20:46:53;;;;;;;20.13;13.98;;;;;;;;;;10404942;27;20079;-63
2023/12/01 20:51:53;;;;;;;17.48;13.70;;;;;;;;;;10423987;27;20070;-62
2023/12/01 20:56:51;;;;;;;26.55;19.30;;;;;;;;;;10414397;27;20573;-62
2023/12/01 21:01:49;;;;;;;46.55;33.20;;;;;;;;;;10427070;27;20112;-61
2023/12/01 21:06:48;;;;;;;45.78;35.03;;;;;;;;;;10428026;27;20065;-62
2023/12/01 21:11:49;;;;;;;43.47;34.80;;;;;;;;;;10422999;27;20058;-62
2023/12/01 21:16:47;;;;;;;33.30;28.50;;;;;;;;;;10425965;27;20070;-61
2023/12/01 21:21:45;;;;;;;40.75;32.85;;;;;;;;;;10426138;27;20066;-61
2023/12/01 21:26:44;;;;;;;36.45;30.17;;;;;;;;;;10425051;27;20063;-61
2023/12/01 21:31:43;;;;;;;14.82;10.13;;;;;;;;;;10428691;27;20069;-61
2023/12/01 21:36:43;;;;;;;30.77;24.73;;;;;;;;;;10422910;27;20073;-62
2023/12/01 21:41:41;;;;;;;17.42;13.88;;;;;;;;;;10430271;27;20082;-62
2023/12/01 21:46:39;;;;;;;15.15;11.75;;;;;;;;;;10406506;27;20078;-62
2023/12/01 21:51:39;;;;;;;21.15;16.08;;;;;;;;;;10421884;28;20071;-62
2023/12/01 21:56:37;;;;;;;17.85;15.25;;;;;;;;;;10422273;28;20071;-63
2023/12/01 22:01:35;;;;;;;44.83;34.10;;;;;;;;;;10429042;28;20089;-61
2023/12/01 22:06:34;;;;;;;33.22;24.58;;;;;;;;;;10414039;28;20504;-63
2023/12/01 22:11:38;;;;;;;15.48;13.85;;;;;;;;;;10415241;28;20117;-62
2023/12/01 22:16:36;;;;;;;9.80;7.75;;;;;;;;;;10419406;28;20067;-62
2023/12/01 22:21:36;;;;;;;6.30;5.68;;;;;;;;;;10407078;28;20082;-62
2023/12/01 22:26:36;;;;;;;32.42;21.52;;;;;;;;;;10411787;28;20066;-62
2023/12/01 22:31:34;;;;;;;62.95;45.15;;;;;;;;;;10395760;27;20079;-60
2023/12/01 22:36:32;;;;;;;72.93;46.90;;;;;;;;;;10419341;27;20070;-63
2023/12/01 22:41:30;;;;;;;77.85;52.50;;;;;;;;;;10413273;27;20085;-62
2023/12/01 22:46:30;;;;;;;70.60;49.28;;;;;;;;;;10415033;27;20070;-65
2023/12/01 22:51:28;;;;;;;49.35;34.63;;;;;;;;;;10419355;27;20081;-63
2023/12/01 22:56:26;;;;;;;34.90;26.75;;;;;;;;;;10419909;27;20070;-62
2023/12/01 23:01:25;;;;;;;35.47;25.90;;;;;;;;;;10421774;27;20086;-61
2023/12/01 23:06:25;;;;;;;33.05;25.88;;;;;;;;;;10421135;27;20078;-61
2023/12/01 23:11:23;;;;;;;37.65;27.02;;;;;;;;;;10421030;27;20463;-61
2023/12/01 23:16:21;;;;;;;28.70;21.38;;;;;;;;;;10422823;27;20078;-61
2023/12/01 23:21:19;;;;;;;31.35;23.63;;;;;;;;;;10420585;27;20077;-61
2023/12/01 23:26:19;;;;;;;27.90;21.48;;;;;;;;;;10420003;27;20082;-62
2023/12/01 23:31:17;;;;;;;9.63;6.78;;;;;;;;;;10417803;27;20078;-61
2023/12/01 23:36:16;;;;;;;6.80;5.47;;;;;;;;;;10412961;27;20469;-61
2023/12/01 23:41:14;;;;;;;10.88;7.70;;;;;;;;;;10413497;27;20075;-61
2023/12/01 23:46:14;;;;;;;9.73;7.70;;;;;;;;;;10419620;27;20066;-63
2023/12/01 23:51:12;;;;;;;10.55;8.35;;;;;;;;;;10418825;27;20092;-62
2023/12/01 23:56:11;;;;;;;6.68;5.72;;;;;;;;;;10420025;27;20071;-61
